sensor_id;sensor_type;location;lat;lon;timestamp;P1;durP1;ratioP1;P2;durP2;ratioP2
64834;SDS011;51293;59.296;18.006;2022-07-05T00:00:06;4.60;;;2.00;;
64834;SDS011;51293;59.296;18.006;2022-07-05T00:02:32;3.75;;;1.63;;
64834;SDS011;51293;59.296;18.006;2022-07-05T00:04:57;2.83;;;1.70;;
64834;SDS011;51293;59.296;18.006;2022-07-05T00:07:23;4.80;;;1.92;;
64834;SDS011;51293;59.296;18.006;2022-07-05T00:09:53;4.22;;;1.90;;
64834;SDS011;51293;59.296;18.006;2022-07-05T00:12:21;1.85;;;1.52;;
64834;SDS011;51293;59.296;18.006;2022-07-05T00:14:48;2.92;;;1.83;;
64834;SDS011;51293;59.296;18.006;2022-07-05T00:17:14;1.90;;;1.63;;
64834;SDS011;51293;59.296;18.006;2022-07-05T00:19:40;2.65;;;1.70;;
64834;SDS011;51293;59.296;18.006;2022-07-05T00:22:06;1.70;;;1.48;;
64834;SDS011;51293;59.296;18.006;2022-07-05T00:24:32;3.85;;;1.50;;
64834;SDS011;51293;59.296;18.006;2022-07-05T00:26:58;1.60;;;1.50;;
64834;SDS011;51293;59.296;18.006;2022-07-05T00:29:23;1.35;;;1.25;;
64834;SDS011;51293;59.296;18.006;2022-07-05T00:31:49;3.17;;;1.27;;
64834;SDS011;51293;59.296;18.006;2022-07-05T00:34:14;4.13;;;1.33;;
64834;SDS011;51293;59.296;18.006;2022-07-05T00:36:40;2.50;;;1.30;;
64834;SDS011;51293;59.296;18.006;2022-07-05T00:39:05;1.75;;;1.30;;
64834;SDS011;51293;59.296;18.006;2022-07-05T00:41:32;3.83;;;1.25;;
64834;SDS011;51293;59.296;18.006;2022-07-05T00:44:02;3.92;;;1.48;;
64834;SDS011;51293;59.296;18.006;2022-07-05T00:46:33;1.60;;;1.30;;
64834;SDS011;51293;59.296;18.006;2022-07-05T00:48:59;2.67;;;1.20;;
64834;SDS011;51293;59.296;18.006;2022-07-05T00:51:25;1.13;;;1.10;;
64834;SDS011;51293;59.296;18.006;2022-07-05T00:53:54;3.15;;;1.40;;
64834;SDS011;51293;59.296;18.006;2022-07-05T00:56:19;1.73;;;1.20;;
64834;SDS011;51293;59.296;18.006;2022-07-05T00:58:45;3.80;;;1.30;;
64834;SDS011;51293;59.296;18.006;2022-07-05T01:01:11;2.80;;;1.63;;
64834;SDS011;51293;59.296;18.006;2022-07-05T01:03:37;1.27;;;1.17;;
64834;SDS011;51293;59.296;18.006;2022-07-05T01:06:05;2.65;;;1.30;;
64834;SDS011;51293;59.296;18.006;2022-07-05T01:08:33;3.13;;;1.38;;
64834;SDS011;51293;59.296;18.006;2022-07-05T01:11:00;3.55;;;1.30;;
64834;SDS011;51293;59.296;18.006;2022-07-05T01:13:26;4.20;;;1.30;;
64834;SDS011;51293;59.296;18.006;2022-07-05T01:15:52;4.63;;;1.48;;
64834;SDS011;51293;59.296;18.006;2022-07-05T01:18:18;2.92;;;1.35;;
64834;SDS011;51293;59.296;18.006;2022-07-05T01:20:45;2.15;;;1.10;;
64834;SDS011;51293;59.296;18.006;2022-07-05T01:23:13;2.88;;;1.20;;
64834;SDS011;51293;59.296;18.006;2022-07-05T01:25:38;1.65;;;1.23;;
64834;SDS011;51293;59.296;18.006;2022-07-05T01:28:04;1.92;;;1.17;;
64834;SDS011;51293;59.296;18.006;2022-07-05T01:30:29;3.33;;;1.30;;
64834;SDS011;51293;59.296;18.006;2022-07-05T01:32:58;1.52;;;1.10;;
64834;SDS011;51293;59.296;18.006;2022-07-05T01:35:24;3.28;;;1.40;;
64834;SDS011;51293;59.296;18.006;2022-07-05T01:37:50;1.83;;;1.38;;
64834;SDS011;51293;59.296;18.006;2022-07-05T01:40:17;1.77;;;1.20;;
64834;SDS011;51293;59.296;18.006;2022-07-05T01:42:44;2.53;;;1.23;;
64834;SDS011;51293;59.296;18.006;2022-07-05T01:45:11;2.08;;;1.40;;
64834;SDS011;51293;59.296;18.006;2022-07-05T01:47:40;4.85;;;1.25;;
64834;SDS011;51293;59.296;18.006;2022-07-05T01:50:12;2.83;;;1.30;;
64834;SDS011;51293;59.296;18.006;2022-07-05T01:52:40;3.45;;;1.30;;
64834;SDS011;51293;59.296;18.006;2022-07-05T01:55:08;3.13;;;1.35;;
64834;SDS011;51293;59.296;18.006;2022-07-05T01:57:34;2.67;;;1.45;;
64834;SDS011;51293;59.296;18.006;2022-07-05T01:59:59;1.73;;;1.30;;
64834;SDS011;51293;59.296;18.006;2022-07-05T02:02:25;3.35;;;1.30;;
64834;SDS011;51293;59.296;18.006;2022-07-05T02:04:50;1.48;;;1.30;;
64834;SDS011;51293;59.296;18.006;2022-07-05T02:07:15;3.63;;;1.40;;
64834;SDS011;51293;59.296;18.006;2022-07-05T02:09:41;4.18;;;1.27;;
64834;SDS011;51293;59.296;18.006;2022-07-05T02:12:07;1.40;;;1.30;;
64834;SDS011;51293;59.296;18.006;2022-07-05T02:14:32;4.43;;;1.42;;
64834;SDS011;51293;59.296;18.006;2022-07-05T02:16:58;2.95;;;1.40;;
64834;SDS011;51293;59.296;18.006;2022-07-05T02:19:24;2.85;;;1.35;;
64834;SDS011;51293;59.296;18.006;2022-07-05T02:21:49;4.97;;;1.38;;
64834;SDS011;51293;59.296;18.006;2022-07-05T02:24:15;2.85;;;1.20;;
64834;SDS011;51293;59.296;18.006;2022-07-05T02:26:40;4.45;;;1.48;;
64834;SDS011;51293;59.296;18.006;2022-07-05T02:29:06;4.18;;;1.38;;
64834;SDS011;51293;59.296;18.006;2022-07-05T02:31:31;7.15;;;1.50;;
64834;SDS011;51293;59.296;18.006;2022-07-05T02:33:57;3.47;;;1.30;;
64834;SDS011;51293;59.296;18.006;2022-07-05T02:36:23;1.67;;;1.25;;
64834;SDS011;51293;59.296;18.006;2022-07-05T02:38:49;1.42;;;1.30;;
64834;SDS011;51293;59.296;18.006;2022-07-05T02:41:15;1.95;;;1.38;;
64834;SDS011;51293;59.296;18.006;2022-07-05T02:43:40;2.50;;;1.30;;
64834;SDS011;51293;59.296;18.006;2022-07-05T02:46:06;1.98;;;1.30;;
64834;SDS011;51293;59.296;18.006;2022-07-05T02:48:33;1.92;;;1.25;;
64834;SDS011;51293;59.296;18.006;2022-07-05T02:51:00;5.50;;;1.45;;
64834;SDS011;51293;59.296;18.006;2022-07-05T02:53:26;4.32;;;1.40;;
64834;SDS011;51293;59.296;18.006;2022-07-05T02:55:51;1.60;;;1.20;;
64834;SDS011;51293;59.296;18.006;2022-07-05T02:58:17;4.32;;;1.40;;
64834;SDS011;51293;59.296;18.006;2022-07-05T03:00:43;2.35;;;1.20;;
64834;SDS011;51293;59.296;18.006;2022-07-05T03:03:09;2.92;;;1.30;;
64834;SDS011;51293;59.296;18.006;2022-07-05T03:05:34;1.40;;;1.30;;
64834;SDS011;51293;59.296;18.006;2022-07-05T03:08:00;3.20;;;1.30;;
64834;SDS011;51293;59.296;18.006;2022-07-05T03:10:25;1.75;;;1.40;;
64834;SDS011;51293;59.296;18.006;2022-07-05T03:12:50;2.95;;;1.50;;
64834;SDS011;51293;59.296;18.006;2022-07-05T03:15:16;3.85;;;1.50;;
64834;SDS011;51293;59.296;18.006;2022-07-05T03:17:41;9.50;;;1.60;;
64834;SDS011;51293;59.296;18.006;2022-07-05T03:20:07;2.78;;;1.42;;
64834;SDS011;51293;59.296;18.006;2022-07-05T03:22:33;2.13;;;1.55;;
64834;SDS011;51293;59.296;18.006;2022-07-05T03:24:58;2.75;;;1.35;;
64834;SDS011;51293;59.296;18.006;2022-07-05T03:27:24;5.20;;;1.40;;
64834;SDS011;51293;59.296;18.006;2022-07-05T03:29:49;4.03;;;1.40;;
64834;SDS011;51293;59.296;18.006;2022-07-05T03:32:14;4.00;;;1.50;;
64834;SDS011;51293;59.296;18.006;2022-07-05T03:34:40;1.95;;;1.20;;
64834;SDS011;51293;59.296;18.006;2022-07-05T03:37:05;5.18;;;1.42;;
64834;SDS011;51293;59.296;18.006;2022-07-05T03:39:31;3.83;;;1.85;;
64834;SDS011;51293;59.296;18.006;2022-07-05T03:41:56;2.78;;;1.50;;
64834;SDS011;51293;59.296;18.006;2022-07-05T03:44:22;1.73;;;1.30;;
64834;SDS011;51293;59.296;18.006;2022-07-05T03:46:47;1.65;;;1.10;;
64834;SDS011;51293;59.296;18.006;2022-07-05T03:49:12;3.83;;;1.55;;
64834;SDS011;51293;59.296;18.006;2022-07-05T03:51:38;2.03;;;1.40;;
64834;SDS011;51293;59.296;18.006;2022-07-05T03:54:03;3.75;;;1.50;;
64834;SDS011;51293;59.296;18.006;2022-07-05T03:56:29;4.45;;;1.48;;
64834;SDS011;51293;59.296;18.006;2022-07-05T03:58:54;3.85;;;1.52;;
64834;SDS011;51293;59.296;18.006;2022-07-05T04:01:20;6.47;;;1.77;;
64834;SDS011;51293;59.296;18.006;2022-07-05T04:03:45;4.68;;;1.67;;
64834;SDS011;51293;59.296;18.006;2022-07-05T04:06:11;8.77;;;1.50;;
64834;SDS011;51293;59.296;18.006;2022-07-05T04:08:38;1.52;;;1.40;;
64834;SDS011;51293;59.296;18.006;2022-07-05T04:11:04;4.07;;;1.60;;
64834;SDS011;51293;59.296;18.006;2022-07-05T04:13:30;2.83;;;1.40;;
64834;SDS011;51293;59.296;18.006;2022-07-05T04:15:55;3.15;;;1.35;;
64834;SDS011;51293;59.296;18.006;2022-07-05T04:18:21;3.35;;;1.67;;
64834;SDS011;51293;59.296;18.006;2022-07-05T04:20:47;1.90;;;1.38;;
64834;SDS011;51293;59.296;18.006;2022-07-05T04:23:13;2.13;;;1.30;;
64834;SDS011;51293;59.296;18.006;2022-07-05T04:25:39;2.25;;;1.25;;
64834;SDS011;51293;59.296;18.006;2022-07-05T04:28:04;2.55;;;1.30;;
64834;SDS011;51293;59.296;18.006;2022-07-05T04:30:30;2.40;;;1.15;;
64834;SDS011;51293;59.296;18.006;2022-07-05T04:32:55;4.18;;;1.30;;
64834;SDS011;51293;59.296;18.006;2022-07-05T04:35:21;1.38;;;1.20;;
64834;SDS011;51293;59.296;18.006;2022-07-05T04:37:46;3.13;;;1.40;;
64834;SDS011;51293;59.296;18.006;2022-07-05T04:40:13;3.67;;;1.30;;
64834;SDS011;51293;59.296;18.006;2022-07-05T04:42:39;3.75;;;1.40;;
64834;SDS011;51293;59.296;18.006;2022-07-05T04:45:05;3.38;;;1.38;;
64834;SDS011;51293;59.296;18.006;2022-07-05T04:47:31;2.58;;;1.40;;
64834;SDS011;51293;59.296;18.006;2022-07-05T04:49:57;4.05;;;1.63;;
64834;SDS011;51293;59.296;18.006;2022-07-05T04:52:23;1.20;;;1.10;;
64834;SDS011;51293;59.296;18.006;2022-07-05T04:54:49;4.30;;;1.40;;
64834;SDS011;51293;59.296;18.006;2022-07-05T04:57:14;3.33;;;1.30;;
64834;SDS011;51293;59.296;18.006;2022-07-05T04:59:40;2.85;;;1.42;;
64834;SDS011;51293;59.296;18.006;2022-07-05T05:02:05;4.57;;;1.23;;
64834;SDS011;51293;59.296;18.006;2022-07-05T05:04:31;4.78;;;1.50;;
64834;SDS011;51293;59.296;18.006;2022-07-05T05:06:56;2.65;;;1.30;;
64834;SDS011;51293;59.296;18.006;2022-07-05T05:09:22;3.30;;;1.23;;
64834;SDS011;51293;59.296;18.006;2022-07-05T05:11:47;4.82;;;1.10;;
64834;SDS011;51293;59.296;18.006;2022-07-05T05:14:13;2.47;;;1.60;;
64834;SDS011;51293;59.296;18.006;2022-07-05T05:16:38;4.80;;;1.40;;
64834;SDS011;51293;59.296;18.006;2022-07-05T05:19:04;3.55;;;1.38;;
64834;SDS011;51293;59.296;18.006;2022-07-05T05:21:29;3.42;;;1.30;;
64834;SDS011;51293;59.296;18.006;2022-07-05T05:23:55;3.55;;;1.25;;
64834;SDS011;51293;59.296;18.006;2022-07-05T05:26:20;6.50;;;1.30;;
64834;SDS011;51293;59.296;18.006;2022-07-05T05:28:46;3.17;;;1.35;;
64834;SDS011;51293;59.296;18.006;2022-07-05T05:31:11;4.45;;;1.40;;
64834;SDS011;51293;59.296;18.006;2022-07-05T05:33:36;3.17;;;1.20;;
64834;SDS011;51293;59.296;18.006;2022-07-05T05:36:02;3.25;;;1.23;;
64834;SDS011;51293;59.296;18.006;2022-07-05T05:38:28;2.00;;;1.08;;
64834;SDS011;51293;59.296;18.006;2022-07-05T05:40:53;3.00;;;1.23;;
64834;SDS011;51293;59.296;18.006;2022-07-05T05:43:19;2.65;;;1.10;;
64834;SDS011;51293;59.296;18.006;2022-07-05T05:45:45;3.83;;;1.20;;
64834;SDS011;51293;59.296;18.006;2022-07-05T05:48:10;3.17;;;1.00;;
64834;SDS011;51293;59.296;18.006;2022-07-05T05:50:36;5.70;;;1.27;;
64834;SDS011;51293;59.296;18.006;2022-07-05T05:53:06;5.40;;;1.10;;
64834;SDS011;51293;59.296;18.006;2022-07-05T05:55:33;5.97;;;1.10;;
64834;SDS011;51293;59.296;18.006;2022-07-05T06:00:38;3.33;;;1.00;;
64834;SDS011;51293;59.296;18.006;2022-07-05T06:03:03;2.47;;;1.20;;
64834;SDS011;51293;59.296;18.006;2022-07-05T06:05:29;3.85;;;1.10;;
64834;SDS011;51293;59.296;18.006;2022-07-05T06:07:55;2.08;;;0.95;;
64834;SDS011;51293;59.296;18.006;2022-07-05T06:10:25;1.98;;;0.82;;
64834;SDS011;51293;59.296;18.006;2022-07-05T06:12:54;3.92;;;0.90;;
64834;SDS011;51293;59.296;18.006;2022-07-05T06:15:22;5.15;;;1.05;;
64834;SDS011;51293;59.296;18.006;2022-07-05T06:17:47;3.38;;;1.20;;
64834;SDS011;51293;59.296;18.006;2022-07-05T06:20:15;2.83;;;1.02;;
64834;SDS011;51293;59.296;18.006;2022-07-05T06:22:43;3.42;;;1.08;;
64834;SDS011;51293;59.296;18.006;2022-07-05T06:25:08;1.52;;;0.90;;
64834;SDS011;51293;59.296;18.006;2022-07-05T06:27:37;3.42;;;1.40;;
64834;SDS011;51293;59.296;18.006;2022-07-05T06:30:07;6.78;;;1.00;;
64834;SDS011;51293;59.296;18.006;2022-07-05T06:32:33;4.30;;;1.00;;
64834;SDS011;51293;59.296;18.006;2022-07-05T06:34:58;3.95;;;1.00;;
64834;SDS011;51293;59.296;18.006;2022-07-05T06:37:24;2.22;;;0.90;;
64834;SDS011;51293;59.296;18.006;2022-07-05T06:39:49;3.97;;;0.90;;
64834;SDS011;51293;59.296;18.006;2022-07-05T06:42:14;4.38;;;1.10;;
64834;SDS011;51293;59.296;18.006;2022-07-05T06:44:41;5.30;;;1.10;;
64834;SDS011;51293;59.296;18.006;2022-07-05T06:47:07;5.03;;;1.20;;
64834;SDS011;51293;59.296;18.006;2022-07-05T06:49:32;2.20;;;0.85;;
64834;SDS011;51293;59.296;18.006;2022-07-05T06:51:58;3.90;;;1.10;;
64834;SDS011;51293;59.296;18.006;2022-07-05T06:54:23;3.85;;;0.95;;
64834;SDS011;51293;59.296;18.006;2022-07-05T06:56:49;4.90;;;1.10;;
64834;SDS011;51293;59.296;18.006;2022-07-05T06:59:14;1.23;;;0.80;;
64834;SDS011;51293;59.296;18.006;2022-07-05T07:01:39;2.22;;;0.90;;
64834;SDS011;51293;59.296;18.006;2022-07-05T07:04:05;2.38;;;0.80;;
64834;SDS011;51293;59.296;18.006;2022-07-05T07:06:30;2.25;;;0.90;;
64834;SDS011;51293;59.296;18.006;2022-07-05T07:08:55;3.05;;;0.80;;
64834;SDS011;51293;59.296;18.006;2022-07-05T07:11:39;6.78;;;1.15;;
64834;SDS011;51293;59.296;18.006;2022-07-05T07:14:04;1.27;;;0.95;;
64834;SDS011;51293;59.296;18.006;2022-07-05T07:16:30;4.60;;;1.10;;
64834;SDS011;51293;59.296;18.006;2022-07-05T07:18:55;4.70;;;0.93;;
64834;SDS011;51293;59.296;18.006;2022-07-05T07:21:21;3.55;;;1.02;;
64834;SDS011;51293;59.296;18.006;2022-07-05T07:23:46;3.72;;;0.93;;
64834;SDS011;51293;59.296;18.006;2022-07-05T07:26:12;4.22;;;0.95;;
64834;SDS011;51293;59.296;18.006;2022-07-05T07:28:38;4.97;;;1.00;;
64834;SDS011;51293;59.296;18.006;2022-07-05T07:31:05;3.15;;;0.90;;
64834;SDS011;51293;59.296;18.006;2022-07-05T07:33:31;7.53;;;1.20;;
64834;SDS011;51293;59.296;18.006;2022-07-05T07:35:57;2.13;;;0.90;;
64834;SDS011;51293;59.296;18.006;2022-07-05T07:38:22;3.80;;;0.98;;
64834;SDS011;51293;59.296;18.006;2022-07-05T07:40:49;7.85;;;1.25;;
64834;SDS011;51293;59.296;18.006;2022-07-05T07:43:15;2.35;;;0.85;;
64834;SDS011;51293;59.296;18.006;2022-07-05T07:45:40;3.25;;;1.00;;
64834;SDS011;51293;59.296;18.006;2022-07-05T07:48:05;4.88;;;0.95;;
64834;SDS011;51293;59.296;18.006;2022-07-05T07:50:31;1.80;;;0.75;;
64834;SDS011;51293;59.296;18.006;2022-07-05T07:52:56;3.10;;;1.00;;
64834;SDS011;51293;59.296;18.006;2022-07-05T07:55:22;3.45;;;0.95;;
64834;SDS011;51293;59.296;18.006;2022-07-05T07:57:47;2.70;;;1.00;;
64834;SDS011;51293;59.296;18.006;2022-07-05T08:00:12;2.05;;;0.80;;
64834;SDS011;51293;59.296;18.006;2022-07-05T08:02:38;4.57;;;0.90;;
64834;SDS011;51293;59.296;18.006;2022-07-05T08:05:04;3.63;;;0.90;;
64834;SDS011;51293;59.296;18.006;2022-07-05T08:07:30;4.40;;;1.20;;
64834;SDS011;51293;59.296;18.006;2022-07-05T08:09:55;2.95;;;0.82;;
64834;SDS011;51293;59.296;18.006;2022-07-05T08:12:21;3.67;;;0.90;;
64834;SDS011;51293;59.296;18.006;2022-07-05T08:14:46;3.60;;;1.10;;
64834;SDS011;51293;59.296;18.006;2022-07-05T08:17:12;3.03;;;1.00;;
64834;SDS011;51293;59.296;18.006;2022-07-05T08:19:38;3.20;;;0.93;;
64834;SDS011;51293;59.296;18.006;2022-07-05T08:22:22;5.55;;;0.90;;
64834;SDS011;51293;59.296;18.006;2022-07-05T08:24:48;2.72;;;0.90;;
64834;SDS011;51293;59.296;18.006;2022-07-05T08:27:14;1.73;;;0.90;;
64834;SDS011;51293;59.296;18.006;2022-07-05T08:29:39;2.40;;;0.90;;
64834;SDS011;51293;59.296;18.006;2022-07-05T08:32:05;1.77;;;0.95;;
64834;SDS011;51293;59.296;18.006;2022-07-05T08:34:31;2.22;;;0.82;;
64834;SDS011;51293;59.296;18.006;2022-07-05T08:36:57;4.85;;;0.90;;
64834;SDS011;51293;59.296;18.006;2022-07-05T08:39:22;0.90;;;0.73;;
64834;SDS011;51293;59.296;18.006;2022-07-05T08:41:49;4.05;;;1.15;;
64834;SDS011;51293;59.296;18.006;2022-07-05T08:44:16;3.53;;;0.80;;
64834;SDS011;51293;59.296;18.006;2022-07-05T08:46:44;2.70;;;0.70;;
64834;SDS011;51293;59.296;18.006;2022-07-05T08:49:11;2.75;;;0.90;;
64834;SDS011;51293;59.296;18.006;2022-07-05T08:51:39;3.50;;;0.90;;
64834;SDS011;51293;59.296;18.006;2022-07-05T08:54:10;2.88;;;1.00;;
64834;SDS011;51293;59.296;18.006;2022-07-05T08:56:42;4.38;;;0.88;;
64834;SDS011;51293;59.296;18.006;2022-07-05T08:59:08;2.25;;;1.00;;
64834;SDS011;51293;59.296;18.006;2022-07-05T09:01:34;4.63;;;0.98;;
64834;SDS011;51293;59.296;18.006;2022-07-05T09:04:03;2.33;;;0.90;;
64834;SDS011;51293;59.296;18.006;2022-07-05T09:06:31;3.22;;;0.90;;
64834;SDS011;51293;59.296;18.006;2022-07-05T09:08:59;4.25;;;1.02;;
64834;SDS011;51293;59.296;18.006;2022-07-05T09:11:39;3.15;;;0.93;;
64834;SDS011;51293;59.296;18.006;2022-07-05T09:14:17;3.60;;;0.82;;
64834;SDS011;51293;59.296;18.006;2022-07-05T09:16:47;1.63;;;0.75;;
64834;SDS011;51293;59.296;18.006;2022-07-05T09:19:13;4.97;;;0.95;;
64834;SDS011;51293;59.296;18.006;2022-07-05T09:21:39;3.10;;;0.80;;
64834;SDS011;51293;59.296;18.006;2022-07-05T09:24:06;2.33;;;0.82;;
64834;SDS011;51293;59.296;18.006;2022-07-05T09:26:43;4.90;;;1.10;;
64834;SDS011;51293;59.296;18.006;2022-07-05T09:31:37;2.65;;;0.73;;
64834;SDS011;51293;59.296;18.006;2022-07-05T09:34:07;4.00;;;0.82;;
64834;SDS011;51293;59.296;18.006;2022-07-05T09:36:49;2.25;;;0.88;;
64834;SDS011;51293;59.296;18.006;2022-07-05T09:44:44;4.45;;;0.70;;
64834;SDS011;51293;59.296;18.006;2022-07-05T09:47:11;1.38;;;0.77;;
64834;SDS011;51293;59.296;18.006;2022-07-05T09:49:41;3.20;;;1.05;;
64834;SDS011;51293;59.296;18.006;2022-07-05T09:52:08;4.03;;;0.73;;
64834;SDS011;51293;59.296;18.006;2022-07-05T09:54:33;5.07;;;0.88;;
64834;SDS011;51293;59.296;18.006;2022-07-05T09:56:58;3.33;;;0.98;;
64834;SDS011;51293;59.296;18.006;2022-07-05T09:59:24;1.90;;;0.90;;
64834;SDS011;51293;59.296;18.006;2022-07-05T10:01:50;4.20;;;0.80;;
64834;SDS011;51293;59.296;18.006;2022-07-05T10:04:16;3.80;;;0.90;;
64834;SDS011;51293;59.296;18.006;2022-07-05T10:06:41;1.33;;;0.80;;
64834;SDS011;51293;59.296;18.006;2022-07-05T10:09:08;2.63;;;0.80;;
64834;SDS011;51293;59.296;18.006;2022-07-05T10:11:36;4.00;;;0.82;;
64834;SDS011;51293;59.296;18.006;2022-07-05T10:14:06;2.25;;;0.90;;
64834;SDS011;51293;59.296;18.006;2022-07-05T10:16:36;2.72;;;0.80;;
64834;SDS011;51293;59.296;18.006;2022-07-05T10:19:02;4.25;;;0.85;;
64834;SDS011;51293;59.296;18.006;2022-07-05T10:21:31;2.67;;;0.73;;
64834;SDS011;51293;59.296;18.006;2022-07-05T10:23:57;4.18;;;0.90;;
64834;SDS011;51293;59.296;18.006;2022-07-05T10:26:24;2.67;;;0.68;;
64834;SDS011;51293;59.296;18.006;2022-07-05T10:28:50;3.28;;;1.00;;
64834;SDS011;51293;59.296;18.006;2022-07-05T10:31:17;2.85;;;0.80;;
64834;SDS011;51293;59.296;18.006;2022-07-05T10:33:44;1.85;;;0.60;;
64834;SDS011;51293;59.296;18.006;2022-07-05T10:36:10;2.30;;;0.95;;
64834;SDS011;51293;59.296;18.006;2022-07-05T10:38:37;3.17;;;0.70;;
64834;SDS011;51293;59.296;18.006;2022-07-05T10:41:05;2.38;;;0.90;;
64834;SDS011;51293;59.296;18.006;2022-07-05T10:43:34;4.43;;;0.90;;
64834;SDS011;51293;59.296;18.006;2022-07-05T10:45:59;2.65;;;0.90;;
64834;SDS011;51293;59.296;18.006;2022-07-05T10:48:25;2.40;;;0.90;;
64834;SDS011;51293;59.296;18.006;2022-07-05T10:50:55;3.50;;;0.90;;
64834;SDS011;51293;59.296;18.006;2022-07-05T10:58:29;3.58;;;0.93;;
64834;SDS011;51293;59.296;18.006;2022-07-05T11:03:44;6.35;;;1.08;;
64834;SDS011;51293;59.296;18.006;2022-07-05T11:06:39;3.85;;;1.00;;
64834;SDS011;51293;59.296;18.006;2022-07-05T11:11:35;4.30;;;1.00;;
64834;SDS011;51293;59.296;18.006;2022-07-05T11:14:02;3.30;;;1.00;;
64834;SDS011;51293;59.296;18.006;2022-07-05T11:22:22;4.97;;;1.30;;
64834;SDS011;51293;59.296;18.006;2022-07-05T11:24:47;4.25;;;1.02;;
64834;SDS011;51293;59.296;18.006;2022-07-05T11:27:13;3.15;;;0.77;;
64834;SDS011;51293;59.296;18.006;2022-07-05T11:29:45;2.78;;;0.90;;
64834;SDS011;51293;59.296;18.006;2022-07-05T11:32:14;2.47;;;0.70;;
64834;SDS011;51293;59.296;18.006;2022-07-05T11:35:13;3.33;;;0.70;;
64834;SDS011;51293;59.296;18.006;2022-07-05T11:38:00;4.25;;;0.82;;
64834;SDS011;51293;59.296;18.006;2022-07-05T11:40:29;3.20;;;0.70;;
64834;SDS011;51293;59.296;18.006;2022-07-05T11:42:57;2.90;;;0.90;;
64834;SDS011;51293;59.296;18.006;2022-07-05T11:45:23;4.32;;;0.80;;
64834;SDS011;51293;59.296;18.006;2022-07-05T11:47:50;2.65;;;0.73;;
64834;SDS011;51293;59.296;18.006;2022-07-05T11:50:24;2.92;;;0.90;;
64834;SDS011;51293;59.296;18.006;2022-07-05T11:52:51;3.42;;;1.15;;
64834;SDS011;51293;59.296;18.006;2022-07-05T11:55:16;2.95;;;0.90;;
64834;SDS011;51293;59.296;18.006;2022-07-05T11:57:49;3.50;;;0.70;;
64834;SDS011;51293;59.296;18.006;2022-07-05T12:00:33;5.00;;;1.00;;
64834;SDS011;51293;59.296;18.006;2022-07-05T12:03:12;3.15;;;0.82;;
64834;SDS011;51293;59.296;18.006;2022-07-05T12:05:38;3.22;;;0.90;;
64834;SDS011;51293;59.296;18.006;2022-07-05T12:08:05;1.98;;;1.00;;
64834;SDS011;51293;59.296;18.006;2022-07-05T12:10:31;2.78;;;0.90;;
64834;SDS011;51293;59.296;18.006;2022-07-05T12:13:15;2.75;;;1.02;;
64834;SDS011;51293;59.296;18.006;2022-07-05T12:15:40;3.33;;;1.10;;
64834;SDS011;51293;59.296;18.006;2022-07-05T12:18:06;2.67;;;0.90;;
64834;SDS011;51293;59.296;18.006;2022-07-05T12:20:34;2.33;;;0.88;;
64834;SDS011;51293;59.296;18.006;2022-07-05T12:23:01;1.73;;;0.88;;
64834;SDS011;51293;59.296;18.006;2022-07-05T12:25:28;3.90;;;1.00;;
64834;SDS011;51293;59.296;18.006;2022-07-05T12:27:55;2.13;;;0.75;;
64834;SDS011;51293;59.296;18.006;2022-07-05T12:30:22;3.42;;;0.80;;
64834;SDS011;51293;59.296;18.006;2022-07-05T12:33:07;4.53;;;0.68;;
64834;SDS011;51293;59.296;18.006;2022-07-05T12:38:14;1.88;;;0.63;;
64834;SDS011;51293;59.296;18.006;2022-07-05T12:40:44;5.05;;;1.00;;
64834;SDS011;51293;59.296;18.006;2022-07-05T12:43:12;3.60;;;0.80;;
64834;SDS011;51293;59.296;18.006;2022-07-05T12:45:40;2.75;;;0.68;;
64834;SDS011;51293;59.296;18.006;2022-07-05T12:48:07;4.78;;;0.68;;
64834;SDS011;51293;59.296;18.006;2022-07-05T12:50:47;0.73;;;0.50;;
64834;SDS011;51293;59.296;18.006;2022-07-05T12:53:15;2.92;;;0.60;;
64834;SDS011;51293;59.296;18.006;2022-07-05T12:59:05;1.95;;;0.70;;
64834;SDS011;51293;59.296;18.006;2022-07-05T13:01:34;2.92;;;0.70;;
64834;SDS011;51293;59.296;18.006;2022-07-05T13:04:07;3.90;;;0.80;;
64834;SDS011;51293;59.296;18.006;2022-07-05T13:06:49;3.88;;;0.90;;
64834;SDS011;51293;59.296;18.006;2022-07-05T13:14:41;4.05;;;0.70;;
64834;SDS011;51293;59.296;18.006;2022-07-05T13:17:08;3.72;;;0.70;;
64834;SDS011;51293;59.296;18.006;2022-07-05T13:19:35;3.58;;;1.00;;
64834;SDS011;51293;59.296;18.006;2022-07-05T13:22:01;2.80;;;0.80;;
64834;SDS011;51293;59.296;18.006;2022-07-05T13:24:26;4.75;;;0.95;;
64834;SDS011;51293;59.296;18.006;2022-07-05T13:26:52;6.03;;;1.00;;
64834;SDS011;51293;59.296;18.006;2022-07-05T13:29:19;3.00;;;1.00;;
64834;SDS011;51293;59.296;18.006;2022-07-05T13:31:44;2.67;;;0.70;;
64834;SDS011;51293;59.296;18.006;2022-07-05T13:34:10;1.88;;;0.80;;
64834;SDS011;51293;59.296;18.006;2022-07-05T13:36:35;4.88;;;0.90;;
64834;SDS011;51293;59.296;18.006;2022-07-05T13:39:00;2.88;;;0.75;;
64834;SDS011;51293;59.296;18.006;2022-07-05T13:41:26;4.55;;;1.10;;
64834;SDS011;51293;59.296;18.006;2022-07-05T13:43:51;2.78;;;0.80;;
64834;SDS011;51293;59.296;18.006;2022-07-05T13:46:17;5.80;;;1.00;;
64834;SDS011;51293;59.296;18.006;2022-07-05T13:48:42;4.50;;;1.00;;
64834;SDS011;51293;59.296;18.006;2022-07-05T13:51:08;3.70;;;0.80;;
64834;SDS011;51293;59.296;18.006;2022-07-05T13:53:33;3.88;;;0.80;;
64834;SDS011;51293;59.296;18.006;2022-07-05T13:56:01;2.45;;;0.73;;
64834;SDS011;51293;59.296;18.006;2022-07-05T13:58:27;1.48;;;0.63;;
64834;SDS011;51293;59.296;18.006;2022-07-05T14:00:53;2.65;;;0.70;;
64834;SDS011;51293;59.296;18.006;2022-07-05T14:03:18;3.80;;;0.60;;
64834;SDS011;51293;59.296;18.006;2022-07-05T14:05:43;2.20;;;0.90;;
64834;SDS011;51293;59.296;18.006;2022-07-05T14:08:09;1.20;;;0.60;;
64834;SDS011;51293;59.296;18.006;2022-07-05T14:10:36;2.08;;;0.80;;
64834;SDS011;51293;59.296;18.006;2022-07-05T14:13:01;3.35;;;0.80;;
64834;SDS011;51293;59.296;18.006;2022-07-05T14:15:27;3.22;;;0.77;;
64834;SDS011;51293;59.296;18.006;2022-07-05T14:17:52;2.35;;;0.50;;
64834;SDS011;51293;59.296;18.006;2022-07-05T14:20:18;3.10;;;0.75;;
64834;SDS011;51293;59.296;18.006;2022-07-05T14:22:43;6.40;;;1.13;;
64834;SDS011;51293;59.296;18.006;2022-07-05T14:25:08;0.90;;;0.57;;
64834;SDS011;51293;59.296;18.006;2022-07-05T14:27:34;3.90;;;0.90;;
64834;SDS011;51293;59.296;18.006;2022-07-05T14:29:59;4.07;;;0.70;;
64834;SDS011;51293;59.296;18.006;2022-07-05T14:32:25;3.17;;;0.70;;
64834;SDS011;51293;59.296;18.006;2022-07-05T14:34:50;4.63;;;0.95;;
64834;SDS011;51293;59.296;18.006;2022-07-05T14:37:15;1.95;;;0.77;;
64834;SDS011;51293;59.296;18.006;2022-07-05T14:39:45;2.45;;;0.70;;
64834;SDS011;51293;59.296;18.006;2022-07-05T14:42:10;3.63;;;0.90;;
64834;SDS011;51293;59.296;18.006;2022-07-05T14:44:36;2.22;;;0.77;;
64834;SDS011;51293;59.296;18.006;2022-07-05T14:47:01;1.30;;;0.68;;
64834;SDS011;51293;59.296;18.006;2022-07-05T14:49:26;2.72;;;0.70;;
64834;SDS011;51293;59.296;18.006;2022-07-05T14:51:52;2.38;;;0.60;;
64834;SDS011;51293;59.296;18.006;2022-07-05T14:54:17;5.35;;;0.77;;
64834;SDS011;51293;59.296;18.006;2022-07-05T14:56:43;1.98;;;0.70;;
64834;SDS011;51293;59.296;18.006;2022-07-05T14:59:08;2.97;;;0.73;;
64834;SDS011;51293;59.296;18.006;2022-07-05T15:01:33;1.42;;;0.70;;
64834;SDS011;51293;59.296;18.006;2022-07-05T15:03:59;2.63;;;0.75;;
64834;SDS011;51293;59.296;18.006;2022-07-05T15:06:24;3.15;;;0.60;;
64834;SDS011;51293;59.296;18.006;2022-07-05T15:08:50;2.72;;;0.88;;